KTBN/TBN METAR and TAF weather

Enter ICAO airport designator
Station Type Date Time Source
KTBN METAR 2020/03/31 06:56 UTC NOAA

KTBN 310656Z AUTO 00000KT 10SM CLR 11/05 A3000 RMK AO2 SLP158 T01120053


Station Type Date Time Source
KTBN Decoded METAR 2020/03/31 06:56 UTC NOAA

Fort Leonard Wood, MO, United States (KTBN) 37-44N 092-08W
Mar 31, 2020 - 02:56 AM EDT / 2020.03.31 0656 UTC
Wind: Calm:0
Visibility: 10 mile(s):0
Sky conditions: clear
Temperature: 52.2 F (11.2 C)
Dew Point: 41.5 F (5.3 C)
Relative Humidity: 66%
Pressure (altimeter): 30 in. Hg (1015 hPa)
ob: KTBN 310656Z AUTO 00000KT 10SM CLR 11/05 A3000 RMK AO2 SLP158 T01120053
cycle: 7

Station Type Date Time Source
KTBN TAF UTC NOAA

Error!

Example: see airport list